Orlando, Florida
Traffic Map
Current Weather Conditions
Orlando, Florida
Overcast
Overcast
82°
Feels Like: 87°
Wind Chill: 82° Ceiling: 9000
Heat Index: 87° Visibility: 10mi
Dew Point: 72° Wind: 6mph
Humidity: 71% Direction: 130° (SE)
Pressure: 29.98in Gusts: 0mph
Raw Report DataKORL 020053Z 13005KT 10SM OVC090 28/22 A2998 RMK AO2 SLP155 T02780222
Traffic Incident Summary
Active as of:
Severity:
Category:
InformationThere was an issue retrieving the traffic information for this location. Please try a different location or try again shortly.
Advertisements
Track Severe Weather on mobile